Time;durP1;ratioP1;P1;durP2;ratioP2;P2;SDS_P1;SDS_P2;PMS_P1;PMS_P2;Temp;Humidity;BMP_temperature;BMP_pressure;BME280_temperature;BME280_humidity;BME280_pressure;Samples;Min_cycle;Max_cycle;Signal;HPM_P1;HPM_P2
2021/12/06 00:01:09;;;;;;;;;;;;;;;11.11;57.52;100081.03;5002759;27;97877;-69
2021/12/06 00:03:37;;;;;;;;;;;;;;;11.10;57.72;100081.34;4971187;27;98074;-60
2021/12/06 00:06:03;;;;;;;;;;;;;;;11.09;57.06;100088.63;5000940;27;126789;-60
2021/12/06 00:08:29;;;;;;;;;;;;;;;11.09;57.03;100088.63;4992462;27;120788;-69
2021/12/06 00:10:55;;;;;;;;;;;;;;;11.07;57.39;100086.19;5002880;27;97821;-68
2021/12/06 00:13:23;;;;;;;;;;;;;;;11.07;57.45;100088.88;5001359;27;98764;-59
2021/12/06 00:15:50;;;;;;;;;;;;;;;11.06;57.42;100084.59;5002230;27;98979;-69
2021/12/06 00:18:16;;;;;;;;;;;;;;;11.05;57.04;100095.66;4992590;27;98437;-60
2021/12/06 00:20:43;;;;;;;;;;;;;;;11.02;56.93;100093.53;5001557;27;113346;-61
2021/12/06 00:23:09;;;;;;;;;;;;;;;11.02;57.36;100093.53;5002223;27;98173;-69
2021/12/06 00:25:35;;;;;;;;;;;;;;;11.03;57.24;100108.59;5001095;27;127922;-59
2021/12/06 00:28:02;;;;;;;;;;;;;;;11.02;57.22;100110.50;4993971;27;98131;-60
2021/12/06 00:30:27;;;;;;;;;;;;;;;11.02;57.35;100115.09;5002207;27;97792;-59
2021/12/06 00:32:53;;;;;;;;;;;;;;;11.01;57.28;100116.19;5001211;27;125556;-59
2021/12/06 00:35:23;;;;;;;;;;;;;;;11.00;57.34;100119.94;5000749;27;128319;-60
2021/12/06 00:37:55;;;;;;;;;;;;;;;11.00;57.12;100125.34;4991569;27;98404;-59
2021/12/06 00:40:21;;;;;;;;;;;;;;;10.98;57.10;100131.03;5001859;27;97891;-69
2021/12/06 00:42:47;;;;;;;;;;;;;;;10.98;57.43;100124.81;5000798;27;127173;-69
2021/12/06 00:45:13;;;;;;;;;;;;;;;10.97;57.19;100128.63;5001456;27;98978;-60
2021/12/06 00:47:39;;;;;;;;;;;;;;;10.96;56.83;100135.88;4994196;27;97773;-60
2021/12/06 00:50:05;;;;;;;;;;;;;;;10.97;56.86;100139.41;4999767;27;118367;-69
2021/12/06 00:52:31;;;;;;;;;;;;;;;10.95;57.57;100134.28;5001875;27;120785;-69
2021/12/06 00:54:57;;;;;;;;;;;;;;;10.95;57.58;100142.38;5004984;27;98202;-69
2021/12/06 00:57:23;;;;;;;;;;;;;;;10.94;57.10;100140.75;4994813;27;127568;-59
2021/12/06 00:59:49;;;;;;;;;;;;;;;10.93;57.44;100136.47;5003351;27;116264;-60
2021/12/06 01:02:15;;;;;;;;;;;;;;;10.93;57.30;100144.53;5003437;27;129797;-69
2021/12/06 01:04:42;;;;;;;;;;;;;;;10.93;57.15;100143.75;5004629;27;113292;-69
2021/12/06 01:07:08;;;;;;;;;;;;;;;10.91;57.32;100140.50;4976964;28;98184;-68
2021/12/06 01:09:34;;;;;;;;;;;;;;;10.92;56.96;100144.81;5003110;27;98504;-60
2021/12/06 01:12:00;;;;;;;;;;;;;;;10.91;56.77;100143.19;5004116;27;125427;-60
2021/12/06 01:14:25;;;;;;;;;;;;;;;10.91;57.36;100160.19;5003896;27;127931;-69
2021/12/06 01:16:52;;;;;;;;;;;;;;;10.90;57.29;100155.06;4999060;27;127846;-69
2021/12/06 01:19:18;;;;;;;;;;;;;;;10.90;57.61;100158.56;5000721;27;98064;-60
2021/12/06 01:21:54;;;;;;;;;;;;;;;10.90;57.19;100155.88;5004290;27;98312;-59
2021/12/06 01:24:27;;;;;;;;;;;;;;;10.89;57.26;100164.25;5003257;27;98453;-60
2021/12/06 01:27:12;;;;;;;;;;;;;;;10.90;57.09;100160.47;5000327;27;98133;-69
2021/12/06 01:30:16;;;;;;;;;;;;;;;10.90;57.15;100166.66;5004849;27;97769;-69
2021/12/06 01:32:59;;;;;;;;;;;;;;;10.90;57.25;100168.56;5003336;27;99784;-60
2021/12/06 01:40:39;;;;;;;;;;;;;;;10.90;57.01;100169.34;5001150;27;97977;-68
2021/12/06 01:43:05;;;;;;;;;;;;;;;10.90;56.89;100168.56;4985263;27;98897;-60
2021/12/06 01:45:31;;;;;;;;;;;;;;;10.89;56.81;100167.75;5003458;27;128792;-60
2021/12/06 01:47:57;;;;;;;;;;;;;;;10.90;57.20;100176.66;4994861;27;99037;-68
2021/12/06 01:50:24;;;;;;;;;;;;;;;10.89;57.35;100175.03;5002715;27;117346;-59
2021/12/06 01:52:56;;;;;;;;;;;;;;;10.89;57.16;100173.16;5004112;27;98307;-59
2021/12/06 01:55:26;;;;;;;;;;;;;;;10.89;56.83;100175.03;5003633;27;125299;-69
2021/12/06 01:57:53;;;;;;;;;;;;;;;10.88;56.83;100171.50;4993881;27;126390;-60
2021/12/06 02:00:26;;;;;;;;;;;;;;;10.88;56.95;100171.50;5003178;27;97984;-69
2021/12/06 02:02:52;;;;;;;;;;;;;;;10.88;56.85;100176.91;5002360;27;124653;-60
2021/12/06 02:05:18;;;;;;;;;;;;;;;10.87;57.15;100175.31;4968946;27;99752;-59
2021/12/06 02:07:44;;;;;;;;;;;;;;;10.87;57.41;100178.00;4976315;27;127222;-60
2021/12/06 02:10:10;;;;;;;;;;;;;;;10.88;57.18;100184.19;4967829;27;108877;-59
2021/12/06 02:12:36;;;;;;;;;;;;;;;10.87;57.34;100180.69;4982826;27;126912;-59
2021/12/06 02:15:26;;;;;;;;;;;;;;;10.88;56.76;100184.19;5003880;27;98705;-59
2021/12/06 02:18:02;;;;;;;;;;;;;;;10.87;57.24;100183.38;4994250;27;97906;-69
2021/12/06 02:20:29;;;;;;;;;;;;;;;10.87;57.07;100180.69;5004024;27;97791;-60
2021/12/06 02:22:56;;;;;;;;;;;;;;;10.87;57.41;100187.97;4984024;27;98654;-60
2021/12/06 02:25:21;;;;;;;;;;;;;;;10.87;56.95;100194.19;5003288;27;98336;-60
2021/12/06 02:27:49;;;;;;;;;;;;;;;10.87;56.89;100187.97;4994353;27;99335;-69
2021/12/06 02:30:17;;;;;;;;;;;;;;;10.87;56.94;100196.06;5002196;27;113685;-68
2021/12/06 02:32:43;;;;;;;;;;;;;;;10.86;57.21;100203.34;4984662;27;99093;-59
2021/12/06 02:35:12;;;;;;;;;;;;;;;10.87;57.01;100215.75;5003882;27;98360;-69
2021/12/06 02:37:38;;;;;;;;;;;;;;;10.86;56.93;100208.75;4994576;27;98734;-59
2021/12/06 02:40:13;;;;;;;;;;;;;;;10.85;56.87;100215.22;5003589;27;97889;-68
2021/12/06 02:42:39;;;;;;;;;;;;;;;10.85;56.74;100212.53;4984306;27;100420;-59
2021/12/06 02:45:06;;;;;;;;;;;;;;;10.86;56.72;100218.72;5003481;27;98468;-69
2021/12/06 02:47:32;;;;;;;;;;;;;;;10.85;56.95;100222.50;4994006;27;120177;-59
2021/12/06 02:50:04;;;;;;;;;;;;;;;10.85;56.95;100219.81;5002875;27;116516;-69
2021/12/06 02:52:30;;;;;;;;;;;;;;;10.85;57.06;100220.63;5002870;27;98666;-69
2021/12/06 02:54:58;;;;;;;;;;;;;;;10.84;57.06;100229.78;5002676;27;124006;-60
2021/12/06 02:57:34;;;;;;;;;;;;;;;10.84;57.11;100234.38;4994764;27;97980;-60
2021/12/06 03:00:01;;;;;;;;;;;;;;;10.83;57.32;100233.56;5003470;27;98046;-60
2021/12/06 03:02:30;;;;;;;;;;;;;;;10.84;57.51;100234.38;5003145;27;98454;-59
2021/12/06 03:04:56;;;;;;;;;;;;;;;10.82;57.03;100231.94;5002513;27;99222;-69
2021/12/06 03:07:24;;;;;;;;;;;;;;;10.81;57.13;100238.44;4994682;27;98047;-59
2021/12/06 03:09:53;;;;;;;;;;;;;;;10.81;57.18;100241.94;5003688;27;97797;-60
2021/12/06 03:12:22;;;;;;;;;;;;;;;10.80;57.05;100248.38;5002921;27;97780;-60
2021/12/06 03:14:50;;;;;;;;;;;;;;;10.79;56.66;100252.16;5002266;27;99349;-69
2021/12/06 03:17:17;;;;;;;;;;;;;;;10.79;57.11;100254.88;4994687;27;118163;-69
2021/12/06 03:19:43;;;;;;;;;;;;;;;10.78;56.94;100253.25;5003249;27;97990;-60
2021/12/06 03:22:11;;;;;;;;;;;;;;;10.77;57.42;100251.66;5001615;27;114874;-60
2021/12/06 03:24:38;;;;;;;;;;;;;;;10.76;57.28;100249.22;5002657;27;98577;-68
2021/12/06 03:27:04;;;;;;;;;;;;;;;10.77;57.17;100256.25;4995909;27;104734;-59
2021/12/06 03:29:30;;;;;;;;;;;;;;;10.74;56.72;100251.38;4981105;27;112887;-69
2021/12/06 03:31:56;;;;;;;;;;;;;;;10.76;56.69;100251.91;5001082;27;126417;-69
2021/12/06 03:34:26;;;;;;;;;;;;;;;10.75;56.42;100250.28;5000800;27;126078;-60
2021/12/06 03:36:55;;;;;;;;;;;;;;;10.75;56.93;100255.69;4996340;27;98062;-59
2021/12/06 03:39:26;;;;;;;;;;;;;;;10.74;56.91;100256.78;4997937;27;117632;-59
2021/12/06 03:41:54;;;;;;;;;;;;;;;10.73;56.45;100264.06;5002426;27;98550;-68
2021/12/06 03:44:20;;;;;;;;;;;;;;;10.73;56.90;100261.38;5002813;27;98782;-60
2021/12/06 03:46:47;;;;;;;;;;;;;;;10.71;57.17;100265.41;4997652;27;98336;-59
2021/12/06 03:49:14;;;;;;;;;;;;;;;10.71;56.59;100268.91;4997038;27;116173;-59
2021/12/06 03:51:40;;;;;;;;;;;;;;;10.68;56.50;100265.94;4983250;27;109061;-59
2021/12/06 03:54:06;;;;;;;;;;;;;;;10.69;57.25;100273.78;4983366;27;98494;-68
2021/12/06 03:56:32;;;;;;;;;;;;;;;10.68;57.01;100274.03;5001065;27;124729;-69
2021/12/06 03:58:58;;;;;;;;;;;;;;;10.67;56.63;100269.72;5002971;27;97909;-59
2021/12/06 04:01:23;;;;;;;;;;;;;;;10.66;56.74;100263.53;5001466;27;106131;-59
2021/12/06 04:03:49;;;;;;;;;;;;;;;10.65;56.82;100261.94;5000905;27;127859;-68
2021/12/06 04:06:15;;;;;;;;;;;;;;;10.64;56.42;100271.06;4983330;27;121246;-69
2021/12/06 04:08:41;;;;;;;;;;;;;;;10.64;56.77;100273.75;5001423;27;118191;-60
2021/12/06 04:11:07;;;;;;;;;;;;;;;10.63;56.90;100277.56;5001365;27;125903;-60
2021/12/06 04:13:34;;;;;;;;;;;;;;;10.63;56.77;100276.75;5001566;27;97863;-69
2021/12/06 04:16:00;;;;;;;;;;;;;;;10.63;56.81;100287.53;5001514;27;98283;-60
2021/12/06 04:18:26;;;;;;;;;;;;;;;10.62;56.95;100281.34;5001423;27;97768;-68
2021/12/06 04:20:53;;;;;;;;;;;;;;;10.61;57.20;100279.72;4999991;27;128114;-60
2021/12/06 04:23:18;;;;;;;;;;;;;;;10.59;57.08;100289.97;4965175;27;98219;-69
2021/12/06 04:25:44;;;;;;;;;;;;;;;10.59;57.26;100291.84;5000886;27;126210;-59
2021/12/06 04:28:14;;;;;;;;;;;;;;;10.57;56.86;100298.31;5001931;27;97811;-59
2021/12/06 04:30:41;;;;;;;;;;;;;;;10.56;56.67;100299.38;5000574;27;98255;-60
2021/12/06 04:33:07;;;;;;;;;;;;;;;10.56;56.98;100303.97;5000613;27;127451;-69
2021/12/06 04:35:33;;;;;;;;;;;;;;;10.57;57.27;100308.28;5001498;27;98214;-69
2021/12/06 04:37:59;;;;;;;;;;;;;;;10.56;57.13;100307.47;5001697;27;113211;-59
2021/12/06 04:40:27;;;;;;;;;;;;;;;10.55;57.00;100315.84;4980874;27;128047;-59
2021/12/06 04:42:54;;;;;;;;;;;;;;;10.55;56.51;100313.94;5000717;27;98814;-69
2021/12/06 04:45:20;;;;;;;;;;;;;;;10.54;56.77;100320.41;5001409;27;98060;-69
2021/12/06 04:47:46;;;;;;;;;;;;;;;10.53;56.81;100321.50;5000254;27;117956;-68
2021/12/06 04:50:12;;;;;;;;;;;;;;;10.54;56.71;100327.69;5000935;27;128231;-60
2021/12/06 04:52:38;;;;;;;;;;;;;;;10.52;56.75;100330.66;4982132;27;98752;-60
2021/12/06 04:55:12;;;;;;;;;;;;;;;10.53;57.30;100334.16;5001598;27;98251;-60
2021/12/06 04:57:40;;;;;;;;;;;;;;;10.52;56.61;100330.66;4983426;27;97911;-59
2021/12/06 05:00:11;;;;;;;;;;;;;;;10.52;56.79;100327.16;5000260;27;127155;-59
2021/12/06 05:02:37;;;;;;;;;;;;;;;10.51;56.95;100331.72;5000917;27;111481;-68
2021/12/06 05:05:32;;;;;;;;;;;;;;;10.51;57.26;100331.72;5000065;27;127064;-59
2021/12/06 05:08:02;;;;;;;;;;;;;;;10.52;56.87;100333.34;5000778;27;98295;-60
2021/12/06 05:10:28;;;;;;;;;;;;;;;10.52;56.61;100337.94;5001369;27;98602;-69
2021/12/06 05:12:54;;;;;;;;;;;;;;;10.53;56.50;100339.53;4999735;27;128249;-68
2021/12/06 05:15:20;;;;;;;;;;;;;;;10.51;57.03;100336.31;5000936;27;124881;-69
2021/12/06 05:17:46;;;;;;;;;;;;;;;10.52;56.76;100340.63;5001039;27;117412;-59
2021/12/06 05:20:12;;;;;;;;;;;;;;;10.51;57.12;100345.22;4999806;27;128927;-60
2021/12/06 05:22:38;;;;;;;;;;;;;;;10.52;57.24;100348.72;5001949;27;98396;-60
2021/12/06 05:25:05;;;;;;;;;;;;;;;10.52;57.20;100354.09;5001243;27;97895;-61
2021/12/06 05:27:31;;;;;;;;;;;;;;;10.52;56.82;100352.22;4982385;27;107082;-60
2021/12/06 05:30:00;;;;;;;;;;;;;;;10.52;56.94;100357.59;4999228;27;122224;-68
2021/12/06 05:32:28;;;;;;;;;;;;;;;10.52;56.99;100357.59;5000978;27;99035;-69
2021/12/06 05:35:03;;;;;;;;;;;;;;;10.50;56.86;100357.06;5000740;27;98299;-69
2021/12/06 05:37:29;;;;;;;;;;;;;;;10.51;56.88;100363.28;4981634;27;98255;-59
2021/12/06 05:39:55;;;;;;;;;;;;;;;10.51;56.80;100374.06;5003588;27;109400;-59
2021/12/06 05:42:21;;;;;;;;;;;;;;;10.51;56.89;100382.13;5002306;27;98441;-59
2021/12/06 05:44:47;;;;;;;;;;;;;;;10.50;56.85;100378.63;4981622;27;127464;-59
2021/12/06 05:47:13;;;;;;;;;;;;;;;10.49;56.55;100387.81;5002828;27;97824;-59
2021/12/06 05:49:39;;;;;;;;;;;;;;;10.49;56.92;100390.50;5002158;27;98364;-59
2021/12/06 05:52:05;;;;;;;;;;;;;;;10.49;56.86;100395.91;5002474;27;99772;-59
2021/12/06 05:54:31;;;;;;;;;;;;;;;10.48;56.54;100390.75;4982793;27;116046;-60
2021/12/06 05:56:57;;;;;;;;;;;;;;;10.48;56.59;100404.22;5001228;27;117278;-59
2021/12/06 05:59:23;;;;;;;;;;;;;;;10.48;56.74;100407.72;4982215;27;128263;-60
2021/12/06 06:01:52;;;;;;;;;;;;;;;10.46;56.44;100401.81;4982554;27;127725;-60
2021/12/06 06:04:18;;;;;;;;;;;;;;;10.47;56.99;100411.50;5001590;27;98018;-59
2021/12/06 06:06:43;;;;;;;;;;;;;;;10.46;57.23;100409.09;5001288;27;115971;-60
2021/12/06 06:09:09;;;;;;;;;;;;;;;10.46;57.04;100411.78;5001974;27;99087;-59
2021/12/06 06:11:35;;;;;;;;;;;;;;;10.46;56.33;100415.28;5000686;27;125953;-59
2021/12/06 06:14:03;;;;;;;;;;;;;;;10.45;57.09;100410.16;5000724;27;116021;-60
2021/12/06 06:16:36;;;;;;;;;;;;;;;10.44;56.90;100414.72;5001778;27;116239;-59
2021/12/06 06:19:02;;;;;;;;;;;;;;;10.44;57.09;100413.91;5001144;27;98726;-59
2021/12/06 06:21:27;;;;;;;;;;;;;;;10.43;56.39;100415.81;5001584;27;98549;-60
2021/12/06 06:23:53;;;;;;;;;;;;;;;10.43;56.69;100417.69;4999874;27;126422;-59
2021/12/06 06:26:19;;;;;;;;;;;;;;;10.43;56.63;100425.78;5001940;27;100856;-60
2021/12/06 06:28:45;;;;;;;;;;;;;;;10.43;56.91;100423.91;5000628;27;127654;-59
2021/12/06 06:31:11;;;;;;;;;;;;;;;10.43;56.76;100431.97;5000815;27;128008;-60
2021/12/06 06:33:37;;;;;;;;;;;;;;;10.43;56.85;100431.97;5000687;27;97945;-60
2021/12/06 06:36:03;;;;;;;;;;;;;;;10.43;56.95;100447.34;5001787;27;117225;-59
2021/12/06 06:38:29;;;;;;;;;;;;;;;10.42;56.47;100443.84;5000310;27;118555;-60
2021/12/06 06:40:55;;;;;;;;;;;;;;;10.44;56.45;100447.06;5000700;27;120515;-60
2021/12/06 06:43:21;;;;;;;;;;;;;;;10.43;57.10;100448.16;5002082;27;98079;-59
2021/12/06 06:45:47;;;;;;;;;;;;;;;10.43;56.92;100448.16;5001851;27;97984;-59
2021/12/06 06:48:13;;;;;;;;;;;;;;;10.42;56.93;100451.94;5000024;27;127929;-59
2021/12/06 06:50:39;;;;;;;;;;;;;;;10.43;57.15;100455.44;4999460;27;127468;-60
2021/12/06 06:53:05;;;;;;;;;;;;;;;10.43;56.70;100448.16;4945171;28;127158;-60
2021/12/06 06:55:31;;;;;;;;;;;;;;;10.43;56.42;100461.63;4981837;28;109316;-60
2021/12/06 06:57:57;;;;;;;;;;;;;;;10.44;56.67;100468.63;4945153;28;129025;-60
2021/12/06 07:00:25;;;;;;;;;;;;;;;10.42;56.38;100460.00;4983112;27;98304;-59
2021/12/06 07:02:51;;;;;;;;;;;;;;;10.45;57.00;100464.03;5002502;27;98033;-59
2021/12/06 07:05:17;;;;;;;;;;;;;;;10.45;56.62;100472.13;5002547;27;107091;-68
2021/12/06 07:07:43;;;;;;;;;;;;;;;10.44;57.00;100475.91;5001576;27;112373;-59
2021/12/06 07:10:09;;;;;;;;;;;;;;;10.44;56.68;100478.59;5002219;27;128213;-59
2021/12/06 07:12:42;;;;;;;;;;;;;;;10.44;56.90;100482.09;5001703;27;98069;-59
2021/12/06 07:15:11;;;;;;;;;;;;;;;10.44;56.94;100486.69;5003633;27;98005;-69
2021/12/06 07:17:40;;;;;;;;;;;;;;;10.43;57.15;100480.50;5000371;27;98697;-59
2021/12/06 07:20:07;;;;;;;;;;;;;;;10.42;56.87;100495.03;4980968;27;125395;-59
2021/12/06 07:22:33;;;;;;;;;;;;;;;10.42;56.24;100495.03;5000633;27;104691;-59
2021/12/06 07:24:59;;;;;;;;;;;;;;;10.42;56.50;100497.75;4990707;27;97778;-60
2021/12/06 07:27:25;;;;;;;;;;;;;;;10.42;56.86;100495.03;4980504;28;128789;-59
2021/12/06 07:29:50;;;;;;;;;;;;;;;10.43;56.79;100501.25;4980164;28;118162;-59
2021/12/06 07:32:16;;;;;;;;;;;;;;;10.44;56.79;100498.28;4980004;28;127846;-60
2021/12/06 07:34:42;;;;;;;;;;;;;;;10.45;56.53;100508.00;4979953;28;116331;-59
2021/12/06 07:37:09;;;;;;;;;;;;;;;10.45;56.88;100513.38;4990595;27;98480;-59
2021/12/06 07:39:35;;;;;;;;;;;;;;;10.46;55.97;100512.31;4997716;27;127049;-60
2021/12/06 07:42:01;;;;;;;;;;;;;;;10.46;56.25;100516.88;4997325;27;127447;-60
2021/12/06 07:44:27;;;;;;;;;;;;;;;10.45;56.57;100516.09;4997430;27;98098;-60
2021/12/06 07:46:53;;;;;;;;;;;;;;;10.44;56.61;100522.53;4977878;27;126159;-60
2021/12/06 07:49:20;;;;;;;;;;;;;;;10.46;57.05;100519.59;4998023;27;98484;-59
2021/12/06 07:51:45;;;;;;;;;;;;;;;10.45;56.28;100534.94;4998141;27;98747;-60
2021/12/06 07:54:13;;;;;;;;;;;;;;;10.46;56.76;100538.44;4997481;27;115420;-59
2021/12/06 07:56:40;;;;;;;;;;;;;;;10.46;56.42;100528.47;4996764;27;98323;-59
2021/12/06 07:59:06;;;;;;;;;;;;;;;10.46;57.12;100533.88;4996957;27;98387;-59
2021/12/06 08:01:31;;;;;;;;;;;;;;;10.46;56.81;100536.56;4995539;27;127662;-60
2021/12/06 08:03:59;;;;;;;;;;;;;;;10.47;56.61;100532.78;4997112;27;118191;-59
2021/12/06 08:06:25;;;;;;;;;;;;;;;10.49;57.05;100535.19;4996542;27;98175;-59
2021/12/06 08:08:51;;;;;;;;;;;;;;;10.50;56.46;100539.53;4995926;27;109607;-60
2021/12/06 08:11:19;;;;;;;;;;;;;;;10.50;56.85;100534.16;4995745;27;128255;-60
2021/12/06 08:13:46;;;;;;;;;;;;;;;10.52;56.45;100537.38;4996006;27;98042;-59
2021/12/06 08:16:16;;;;;;;;;;;;;;;10.52;56.47;100537.38;4996337;27;98832;-60
2021/12/06 08:18:44;;;;;;;;;;;;;;;10.53;56.98;100544.38;4988403;27;123059;-59
2021/12/06 08:21:10;;;;;;;;;;;;;;;10.54;56.53;100549.53;4996217;27;98705;-60
2021/12/06 08:23:36;;;;;;;;;;;;;;;10.55;57.09;100553.81;4988362;27;98252;-60
2021/12/06 08:26:03;;;;;;;;;;;;;;;10.56;56.22;100554.63;4995593;27;108506;-60
2021/12/06 08:28:31;;;;;;;;;;;;;;;10.56;56.85;100565.41;4996440;27;126863;-59
2021/12/06 08:30:57;;;;;;;;;;;;;;;10.55;56.90;100559.22;4997044;27;98776;-60
2021/12/06 08:33:24;;;;;;;;;;;;;;;10.54;56.64;100554.09;4986920;27;117421;-60
2021/12/06 08:35:53;;;;;;;;;;;;;;;10.55;56.24;100556.53;4995457;27;128783;-59
2021/12/06 08:38:20;;;;;;;;;;;;;;;10.55;56.33;100564.59;4978228;27;98320;-59
2021/12/06 08:40:46;;;;;;;;;;;;;;;10.57;56.73;100561.63;4994823;27;128064;-59
2021/12/06 08:43:19;;;;;;;;;;;;;;;10.57;56.34;100562.47;4969091;27;116698;-60
2021/12/06 08:45:48;;;;;;;;;;;;;;;10.58;56.86;100560.59;4996624;27;99225;-59
2021/12/06 08:48:14;;;;;;;;;;;;;;;10.59;56.78;100572.16;4995370;27;127555;-60
2021/12/06 08:50:40;;;;;;;;;;;;;;;10.61;57.08;100570.00;4995353;27;127714;-60
2021/12/06 08:53:06;;;;;;;;;;;;;;;10.60;57.05;100569.19;4987240;27;117329;-60
2021/12/06 08:55:32;;;;;;;;;;;;;;;10.60;56.75;100571.91;4992362;27;117475;-59
2021/12/06 08:57:58;;;;;;;;;;;;;;;10.61;57.03;100570.84;4994526;27;98610;-60
2021/12/06 09:00:26;;;;;;;;;;;;;;;10.64;56.41;100574.88;4995054;27;125445;-59
2021/12/06 09:02:52;;;;;;;;;;;;;;;10.64;56.51;100570.28;4988061;27;97952;-60
2021/12/06 09:05:18;;;;;;;;;;;;;;;10.64;56.75;100578.38;4995316;27;121415;-60
2021/12/06 09:07:44;;;;;;;;;;;;;;;10.65;57.13;100588.09;4995126;27;125139;-59
2021/12/06 09:10:12;;;;;;;;;;;;;;;10.64;56.79;100594.56;4995321;27;127764;-60
2021/12/06 09:12:38;;;;;;;;;;;;;;;10.64;56.57;100599.13;4988054;27;98263;-59
2021/12/06 09:15:10;;;;;;;;;;;;;;;10.64;56.52;100594.56;4998187;27;123317;-60
2021/12/06 09:17:36;;;;;;;;;;;;;;;10.64;56.74;100591.84;4999572;27;100307;-59
2021/12/06 09:20:04;;;;;;;;;;;;;;;10.64;56.74;100597.25;4998532;27;114488;-60
2021/12/06 09:22:30;;;;;;;;;;;;;;;10.64;56.97;100609.91;4998269;27;111658;-60
2021/12/06 09:24:56;;;;;;;;;;;;;;;10.63;56.78;100605.63;4998274;27;127164;-59
2021/12/06 09:27:23;;;;;;;;;;;;;;;10.61;56.64;100605.88;4999013;27;128400;-59
2021/12/06 09:29:49;;;;;;;;;;;;;;;10.62;56.93;100599.41;4998858;27;98035;-59
2021/12/06 09:32:15;;;;;;;;;;;;;;;10.63;56.59;100601.03;4998412;27;116396;-59
2021/12/06 09:34:43;;;;;;;;;;;;;;;10.64;56.92;100608.03;4999996;27;98548;-60
2021/12/06 09:37:09;;;;;;;;;;;;;;;10.66;56.68;100615.88;4999671;27;98875;-60
2021/12/06 09:39:35;;;;;;;;;;;;;;;10.66;57.23;100607.78;4999174;27;100271;-60
2021/12/06 09:42:01;;;;;;;;;;;;;;;10.66;56.80;100613.19;4998526;27;98222;-60
2021/12/06 09:44:27;;;;;;;;;;;;;;;10.66;56.98;100605.91;4998975;27;106576;-59
2021/12/06 09:46:53;;;;;;;;;;;;;;;10.70;56.75;100609.69;4998538;27;127456;-60
2021/12/06 09:49:20;;;;;;;;;;;;;;;10.70;56.50;100615.06;4998501;27;98362;-60
2021/12/06 09:51:51;;;;;;;;;;;;;;;10.73;57.04;100611.06;4999102;27;97996;-59
2021/12/06 09:54:21;;;;;;;;;;;;;;;10.76;56.78;100616.69;4998730;27;106521;-59
2021/12/06 09:56:47;;;;;;;;;;;;;;;10.78;56.52;100614.56;4979304;27;97976;-59
2021/12/06 09:59:15;;;;;;;;;;;;;;;10.83;56.92;100613.75;4997861;27;105676;-60
2021/12/06 10:01:45;;;;;;;;;;;;;;;10.88;56.93;100607.56;4999384;27;97812;-59
2021/12/06 10:04:14;;;;;;;;;;;;;;;10.93;56.73;100615.69;4997969;27;99331;-60
2021/12/06 10:06:40;;;;;;;;;;;;;;;10.97;56.69;100616.78;4999495;27;98259;-60
2021/12/06 10:09:07;;;;;;;;;;;;;;;10.98;56.63;100613.81;4997223;27;127825;-60
2021/12/06 10:11:33;;;;;;;;;;;;;;;11.01;56.97;100613.28;4979971;27;97846;-60
2021/12/06 10:13:59;;;;;;;;;;;;;;;11.07;56.81;100606.00;4998460;27;112532;-59
2021/12/06 10:16:25;;;;;;;;;;;;;;;11.10;56.91;100610.88;4978870;27;98652;-59
2021/12/06 10:18:51;;;;;;;;;;;;;;;11.13;56.73;100606.84;4997686;27;127525;-60
2021/12/06 10:21:17;;;;;;;;;;;;;;;11.19;56.71;100611.94;4999076;27;97946;-60
2021/12/06 10:23:43;;;;;;;;;;;;;;;11.22;56.36;100611.41;4998194;27;108170;-60
2021/12/06 10:26:11;;;;;;;;;;;;;;;11.26;56.77;100609.00;4997743;27;123180;-60
2021/12/06 10:28:39;;;;;;;;;;;;;;;11.25;56.53;100605.50;4979274;27;98817;-59
2021/12/06 10:31:07;;;;;;;;;;;;;;;11.26;56.92;100600.91;4999354;27;98007;-60
2021/12/06 10:33:35;;;;;;;;;;;;;;;11.25;56.90;100604.69;4996844;27;128482;-59
2021/12/06 10:36:05;;;;;;;;;;;;;;;11.24;56.88;100611.97;4997117;27;124963;-60
2021/12/06 10:38:36;;;;;;;;;;;;;;;11.21;56.63;100607.09;4998318;27;98192;-59
2021/12/06 10:41:25;;;;;;;;;;;;;;;11.20;56.46;100616.28;4992236;27;97729;-60
2021/12/06 10:43:59;;;;;;;;;;;;;;;11.18;57.07;100610.34;4998127;27;98972;-59
2021/12/06 10:46:25;;;;;;;;;;;;;;;11.17;56.55;100613.31;4997942;27;120041;-59
2021/12/06 10:48:55;;;;;;;;;;;;;;;11.17;57.13;100614.13;4997358;27;125136;-59
2021/12/06 10:51:23;;;;;;;;;;;;;;;11.15;56.92;100605.47;4998603;27;98308;-60
2021/12/06 10:54:01;;;;;;;;;;;;;;;11.15;57.06;100601.97;4979675;27;98666;-60
2021/12/06 10:56:39;;;;;;;;;;;;;;;11.15;56.92;100604.66;4997971;27;99252;-60
2021/12/06 10:59:09;;;;;;;;;;;;;;;11.17;57.20;100600.63;4997651;27;99416;-59
2021/12/06 11:01:35;;;;;;;;;;;;;;;11.19;56.74;100603.06;4997565;27;115346;-59
2021/12/06 11:04:03;;;;;;;;;;;;;;;11.18;57.30;100601.44;4996992;27;125848;-60
2021/12/06 11:06:36;;;;;;;;;;;;;;;11.22;57.00;100606.03;4998034;27;98708;-60
2021/12/06 11:09:04;;;;;;;;;;;;;;;11.23;56.69;100604.94;4978898;27;98453;-59
2021/12/06 11:11:39;;;;;;;;;;;;;;;11.23;56.81;100604.13;4999079;27;97771;-60
2021/12/06 11:14:13;;;;;;;;;;;;;;;11.23;56.85;100614.94;4991113;27;99363;-59
2021/12/06 11:16:41;;;;;;;;;;;;;;;11.26;57.28;100617.09;4999302;27;97937;-59
2021/12/06 11:19:11;;;;;;;;;;;;;;;11.27;57.18;100605.22;4999377;27;97943;-59
2021/12/06 11:21:44;;;;;;;;;;;;;;;11.29;56.95;100600.38;4999149;27;98158;-59
2021/12/06 11:24:11;;;;;;;;;;;;;;;11.30;57.07;100599.28;4999674;27;97960;-59
2021/12/06 11:26:43;;;;;;;;;;;;;;;11.37;57.03;100607.13;4999608;27;97780;-59
2021/12/06 11:29:19;;;;;;;;;;;;;;;11.38;56.95;100592.53;4964298;27;98501;-59
2021/12/06 11:32:22;;;;;;;;;;;;;;;11.39;57.11;100596.84;4999144;27;98310;-59
2021/12/06 11:34:59;;;;;;;;;;;;;;;11.42;57.05;100591.72;4999361;27;98402;-59
2021/12/06 11:37:26;;;;;;;;;;;;;;;11.46;56.48;100600.09;4999953;27;98407;-68
2021/12/06 11:40:12;;;;;;;;;;;;;;;11.44;56.68;100591.47;4998647;27;98156;-68
2021/12/06 11:42:51;;;;;;;;;;;;;;;11.48;57.08;100593.38;4992640;27;101545;-60
2021/12/06 11:45:46;;;;;;;;;;;;;;;11.53;56.91;100593.34;4997755;27;98499;-69
2021/12/06 11:48:25;;;;;;;;;;;;;;;11.54;56.86;100600.38;4999328;27;99128;-60
2021/12/06 11:51:04;;;;;;;;;;;;;;;11.55;56.88;100606.56;4998633;27;98607;-68
2021/12/06 11:53:33;;;;;;;;;;;;;;;11.55;57.18;100603.88;4976821;27;97994;-69
2021/12/06 11:56:08;;;;;;;;;;;;;;;11.53;56.79;100603.34;4999651;27;98988;-69
2021/12/06 11:58:42;;;;;;;;;;;;;;;11.52;56.95;100602.53;4996157;27;98580;-59
2021/12/06 12:01:26;;;;;;;;;;;;;;;11.53;57.11;100603.34;4998621;27;97888;-59
2021/12/06 12:03:54;;;;;;;;;;;;;;;11.54;57.09;100600.38;4999282;27;97880;-59
2021/12/06 12:06:34;;;;;;;;;;;;;;;11.54;57.12;100602.25;4998624;27;99152;-68
2021/12/06 12:09:19;;;;;;;;;;;;;;;11.53;57.36;100606.84;4999484;27;98128;-69
2021/12/06 12:12:13;;;;;;;;;;;;;;;11.50;57.39;100607.38;4998720;27;99517;-69
2021/12/06 12:14:39;;;;;;;;;;;;;;;11.49;57.32;100604.97;4962929;27;99299;-60
2021/12/06 12:17:10;;;;;;;;;;;;;;;11.48;57.08;100604.16;4999133;27;97850;-69
2021/12/06 12:19:37;;;;;;;;;;;;;;;11.48;57.47;100609.56;4980287;27;98225;-69
2021/12/06 12:22:03;;;;;;;;;;;;;;;11.48;57.24;100600.66;4997885;27;98051;-68
2021/12/06 12:24:30;;;;;;;;;;;;;;;11.48;57.26;100598.78;4999549;27;97939;-59
2021/12/06 12:27:09;;;;;;;;;;;;;;;11.47;57.51;100604.41;4998955;27;98868;-60
2021/12/06 12:29:35;;;;;;;;;;;;;;;11.49;57.30;100591.47;4998950;27;98458;-68
2021/12/06 12:32:04;;;;;;;;;;;;;;;11.50;57.15;100591.19;4961855;27;127867;-68
2021/12/06 12:34:31;;;;;;;;;;;;;;;11.51;57.41;100592.84;4997064;27;112114;-60
2021/12/06 12:36:57;;;;;;;;;;;;;;;11.54;57.20;100588.75;4978721;27;98529;-68
2021/12/06 12:39:23;;;;;;;;;;;;;;;11.56;57.27;100586.63;4997918;27;99440;-59
2021/12/06 12:41:59;;;;;;;;;;;;;;;11.52;57.27;100589.03;4996726;27;127266;-69
2021/12/06 12:44:25;;;;;;;;;;;;;;;11.54;57.29;100577.97;4998255;27;98004;-69